createdAt,value
2023-05-17T00:02:24.195Z,12.40
2023-05-17T00:05:26.258Z,13.47
2023-05-17T00:08:28.358Z,15.17
2023-05-17T00:11:30.570Z,14.63
2023-05-17T00:14:32.495Z,14.43
2023-05-17T00:17:34.595Z,12.30
2023-05-17T00:20:36.827Z,12.77
2023-05-17T00:23:39.452Z,11.43
2023-05-17T00:26:41.794Z,12.70
2023-05-17T00:29:43.867Z,12.03
2023-05-17T00:32:47.125Z,12.53
2023-05-17T00:35:49.538Z,11.57
2023-05-17T00:38:51.536Z,9.03
2023-05-17T00:41:53.634Z,11.37
2023-05-17T00:44:55.600Z,10.17
2023-05-17T00:47:57.797Z,11.40
2023-05-17T00:50:59.881Z,11.13
2023-05-17T00:54:05.640Z,11.30
2023-05-17T00:57:08.076Z,10.60
2023-05-17T01:00:10.565Z,9.70
2023-05-17T01:03:12.552Z,10.37
2023-05-17T01:06:15.241Z,9.20
2023-05-17T01:09:17.516Z,11.07
2023-05-17T01:12:25.366Z,10.67
2023-05-17T01:15:32.186Z,11.37
2023-05-17T01:18:42.403Z,11.00
2023-05-17T01:22:15.680Z,11.23
2023-05-17T01:25:58.405Z,10.73
2023-05-17T01:29:01.270Z,10.43
2023-05-17T01:32:03.849Z,10.57
2023-05-17T01:35:06.218Z,10.60
2023-05-17T01:38:08.249Z,10.83
2023-05-17T01:41:18.189Z,10.70
2023-05-17T01:44:36.517Z,11.53
2023-05-17T01:47:56.782Z,11.20
2023-05-17T01:50:59.558Z,10.97
2023-05-17T01:54:03.614Z,11.40
2023-05-17T01:57:07.978Z,11.97
2023-05-17T02:00:12.063Z,11.83
2023-05-17T02:03:18.518Z,12.50
2023-05-17T02:06:20.482Z,13.37
2023-05-17T02:09:22.485Z,12.30
2023-05-17T02:12:25.602Z,12.67
2023-05-17T02:15:27.790Z,12.67
2023-05-17T02:18:30.641Z,12.80
2023-05-17T02:21:32.994Z,12.30
2023-05-17T02:24:34.863Z,12.43
2023-05-17T02:27:36.802Z,10.83
2023-05-17T02:30:41.874Z,12.40
2023-05-17T02:33:43.853Z,11.83
2023-05-17T02:36:46.536Z,12.40
2023-05-17T02:39:48.484Z,13.17
2023-05-17T02:42:50.488Z,12.57
2023-05-17T02:45:52.390Z,12.83
2023-05-17T02:48:54.448Z,12.83
2023-05-17T02:51:56.415Z,13.27
2023-05-17T02:54:58.427Z,12.50
2023-05-17T02:58:00.376Z,12.43
2023-05-17T03:01:02.406Z,12.70
2023-05-17T03:04:04.896Z,12.23
2023-05-17T03:07:07.442Z,13.60
2023-05-17T03:10:09.606Z,13.30
2023-05-17T03:13:11.573Z,13.53
2023-05-17T03:16:13.485Z,14.00
2023-05-17T03:19:16.250Z,14.77
2023-05-17T03:22:18.392Z,14.43
2023-05-17T03:25:20.545Z,14.87
2023-05-17T03:28:22.522Z,13.50
2023-05-17T03:31:24.701Z,13.27
2023-05-17T03:34:26.765Z,13.40
2023-05-17T03:37:28.700Z,12.67
2023-05-17T03:40:30.741Z,13.03
2023-05-17T03:43:32.906Z,12.13
2023-05-17T03:46:35.310Z,12.73
2023-05-17T03:49:40.383Z,12.53
2023-05-17T03:52:42.588Z,11.70
2023-05-17T03:55:44.787Z,13.77
2023-05-17T03:58:47.401Z,13.73
2023-05-17T04:01:49.660Z,12.13
2023-05-17T04:04:53.297Z,12.67
2023-05-17T04:07:55.381Z,12.70
2023-05-17T04:10:57.292Z,10.67
2023-05-17T04:13:59.706Z,10.50
2023-05-17T04:17:01.587Z,10.17
2023-05-17T04:20:07.164Z,10.40
2023-05-17T04:23:09.452Z,10.87
2023-05-17T04:26:11.453Z,11.30
2023-05-17T04:29:13.581Z,10.80
2023-05-17T04:32:16.063Z,11.17
2023-05-17T04:35:18.005Z,10.50
2023-05-17T04:38:20.378Z,10.40
2023-05-17T04:41:22.426Z,9.03
2023-05-17T04:44:24.405Z,9.53
2023-05-17T04:47:26.459Z,8.77
2023-05-17T04:50:28.463Z,8.00
2023-05-17T04:53:31.120Z,7.77
2023-05-17T04:56:34.525Z,7.50
2023-05-17T04:59:36.949Z,6.63
2023-05-17T05:02:39.096Z,6.80
2023-05-17T05:05:40.992Z,6.50
2023-05-17T05:08:42.936Z,6.83
2023-05-17T05:11:44.754Z,6.80
2023-05-17T05:14:47.212Z,6.03
2023-05-17T05:17:49.139Z,6.23
2023-05-17T05:20:51.258Z,6.00
2023-05-17T05:23:53.267Z,6.13
2023-05-17T05:26:55.168Z,4.73
2023-05-17T05:29:57.149Z,5.70
2023-05-17T05:32:59.275Z,7.17
2023-05-17T05:36:01.279Z,6.47
2023-05-17T05:39:03.458Z,6.57
2023-05-17T05:42:05.757Z,8.60
2023-05-17T05:45:08.580Z,6.97
2023-05-17T05:48:10.654Z,5.73
2023-05-17T05:51:12.656Z,5.53
2023-05-17T05:54:14.590Z,5.63
2023-05-17T05:57:16.902Z,5.07
2023-05-17T06:00:19.038Z,5.50
2023-05-17T06:03:21.386Z,5.73
2023-05-17T06:06:25.485Z,5.03
2023-05-17T06:09:27.523Z,4.80
2023-05-17T06:12:29.517Z,5.30
2023-05-17T06:15:32.252Z,5.40
2023-05-17T06:18:34.454Z,4.60
2023-05-17T06:21:40.891Z,4.57
2023-05-17T06:24:42.830Z,4.07
2023-05-17T06:27:44.981Z,4.40
2023-05-17T06:30:47.073Z,5.47
2023-05-17T06:33:49.241Z,4.50
2023-05-17T06:36:51.318Z,4.37
2023-05-17T06:40:00.019Z,4.60
2023-05-17T06:43:06.303Z,4.73
2023-05-17T06:46:08.292Z,4.30
2023-05-17T06:49:10.153Z,3.83
2023-05-17T06:52:12.222Z,3.90
2023-05-17T06:55:14.248Z,4.00
2023-05-17T06:58:16.173Z,3.03
2023-05-17T07:01:18.962Z,3.53
2023-05-17T07:04:21.645Z,3.63
2023-05-17T07:07:23.568Z,3.90
2023-05-17T07:10:25.620Z,3.33
2023-05-17T07:13:27.466Z,3.57
2023-05-17T07:16:30.649Z,4.03
2023-05-17T07:19:32.700Z,3.80
2023-05-17T07:22:35.070Z,3.83
2023-05-17T07:25:39.049Z,4.27
2023-05-17T07:28:41.114Z,4.03
2023-05-17T07:31:43.033Z,3.67
2023-05-17T07:34:47.146Z,4.37
2023-05-17T07:37:49.214Z,3.67
2023-05-17T07:40:51.199Z,3.90
2023-05-17T07:43:53.073Z,4.30
2023-05-17T07:46:55.356Z,4.23
2023-05-17T07:49:57.345Z,4.57
2023-05-17T07:52:59.613Z,3.77
2023-05-17T07:56:01.475Z,3.40
2023-05-17T07:59:03.508Z,4.30
2023-05-17T08:02:05.784Z,3.47
2023-05-17T08:05:09.050Z,3.07
2023-05-17T08:08:11.415Z,3.37
2023-05-17T08:11:13.855Z,3.17
2023-05-17T08:14:16.948Z,2.97
2023-05-17T08:17:18.842Z,3.20
2023-05-17T08:20:20.806Z,3.27
2023-05-17T08:23:22.728Z,3.77
2023-05-17T08:26:24.771Z,3.10
2023-05-17T08:29:26.902Z,3.27
2023-05-17T08:32:30.077Z,2.73
2023-05-17T08:35:32.197Z,3.20
2023-05-17T08:38:34.987Z,3.23
2023-05-17T08:41:36.897Z,2.67
2023-05-17T08:44:39.381Z,2.93
2023-05-17T08:47:43.719Z,3.00
2023-05-17T08:50:47.483Z,3.07
2023-05-17T08:53:51.528Z,3.30
2023-05-17T08:57:00.933Z,2.83
2023-05-17T09:00:07.111Z,3.00
2023-05-17T09:03:09.545Z,3.40
2023-05-17T09:06:12.400Z,2.70
2023-05-17T09:09:14.545Z,2.73
2023-05-17T09:12:16.380Z,2.70
2023-05-17T09:15:20.737Z,2.47
2023-05-17T09:18:33.360Z,2.53
2023-05-17T09:21:35.716Z,2.67
2023-05-17T09:24:37.888Z,3.10
2023-05-17T09:27:40.465Z,2.73
2023-05-17T09:30:42.681Z,2.67
2023-05-17T09:33:47.504Z,3.17
2023-05-17T09:36:49.480Z,2.93
2023-05-17T09:39:51.531Z,2.73
2023-05-17T09:42:53.460Z,2.63
2023-05-17T09:45:57.268Z,2.47
2023-05-17T09:49:02.452Z,2.50
2023-05-17T09:52:08.864Z,2.50
2023-05-17T09:55:15.327Z,2.00
2023-05-17T09:58:17.404Z,2.53
2023-05-17T10:01:19.710Z,2.50
2023-05-17T10:04:23.782Z,2.40
2023-05-17T10:07:27.524Z,2.30
2023-05-17T10:10:30.443Z,2.77
2023-05-17T10:13:40.920Z,2.97
2023-05-17T10:16:43.377Z,2.00
2023-05-17T10:19:46.572Z,2.57
2023-05-17T10:22:50.456Z,2.30
2023-05-17T10:25:52.627Z,2.33
2023-05-17T10:29:01.354Z,2.30
2023-05-17T10:32:07.880Z,1.83
2023-05-17T10:35:12.254Z,2.03
2023-05-17T10:38:14.755Z,2.10
2023-05-17T10:41:18.133Z,2.20
2023-05-17T10:44:20.268Z,2.20
2023-05-17T10:47:33.473Z,1.70
2023-05-17T10:50:47.321Z,2.10
2023-05-17T10:54:08.287Z,2.00
2023-05-17T10:57:20.497Z,1.73
2023-05-17T11:00:28.797Z,1.67
2023-05-17T11:03:31.150Z,1.90
2023-05-17T11:06:36.692Z,1.97
2023-05-17T11:09:41.024Z,1.87
2023-05-17T11:12:47.090Z,1.70
2023-05-17T11:16:04.990Z,2.00
2023-05-17T11:19:12.205Z,2.03
2023-05-17T11:22:16.453Z,2.50
2023-05-17T11:25:19.266Z,1.93
2023-05-17T11:28:23.196Z,1.90
2023-05-17T11:31:35.775Z,2.03
2023-05-17T11:34:38.560Z,2.10
2023-05-17T11:37:44.659Z,1.70
2023-05-17T11:40:48.800Z,2.03
2023-05-17T11:43:51.571Z,2.00
2023-05-17T11:47:12.774Z,2.37
2023-05-17T11:50:16.368Z,2.43
2023-05-17T11:53:19.723Z,2.27
2023-05-17T11:56:32.436Z,2.40
2023-05-17T11:59:44.641Z,1.40
2023-05-17T12:02:46.649Z,1.80
2023-05-17T12:05:50.559Z,2.13
2023-05-17T12:08:52.655Z,1.43
2023-05-17T12:11:55.984Z,1.37
2023-05-17T12:14:58.885Z,1.50
2023-05-17T12:18:01.197Z,1.60
2023-05-17T12:21:03.118Z,1.53
2023-05-17T12:24:05.568Z,1.77
2023-05-17T12:27:07.684Z,1.73
2023-05-17T12:30:15.986Z,1.60
2023-05-17T12:33:18.044Z,2.00
2023-05-17T12:36:20.180Z,1.70
2023-05-17T12:39:25.443Z,1.37
2023-05-17T12:42:27.507Z,1.30
2023-05-17T12:45:29.502Z,1.20
2023-05-17T12:48:32.465Z,1.30
2023-05-17T12:51:45.881Z,1.10
2023-05-17T12:54:47.899Z,1.20
2023-05-17T12:57:51.968Z,1.70
2023-05-17T13:01:05.412Z,1.20
2023-05-17T13:04:07.380Z,1.00
2023-05-17T13:07:09.402Z,0.97
2023-05-17T13:10:24.447Z,1.10
2023-05-17T13:13:26.477Z,1.47
2023-05-17T13:16:30.042Z,1.30
2023-05-17T13:19:32.468Z,1.33
2023-05-17T13:22:34.553Z,1.73
2023-05-17T13:25:37.157Z,1.23
2023-05-17T13:28:40.479Z,1.13
2023-05-17T13:31:43.301Z,1.20
2023-05-17T13:34:45.359Z,1.93
2023-05-17T13:37:47.278Z,1.97
2023-05-17T13:40:49.236Z,2.53
2023-05-17T13:43:51.456Z,2.70
2023-05-17T13:46:53.361Z,2.20
2023-05-17T13:49:55.318Z,1.90
2023-05-17T13:52:57.253Z,2.07
2023-05-17T13:55:59.261Z,2.20
2023-05-17T13:59:01.258Z,1.87
2023-05-17T14:02:04.715Z,2.50
2023-05-17T14:05:07.750Z,1.40
2023-05-17T14:08:09.705Z,2.03
2023-05-17T14:11:11.839Z,1.93
2023-05-17T14:14:14.236Z,2.03
2023-05-17T14:17:16.239Z,1.47
2023-05-17T14:20:18.379Z,1.63
2023-05-17T14:23:20.365Z,1.67
2023-05-17T14:26:23.627Z,1.60
2023-05-17T14:29:25.796Z,1.50
2023-05-17T14:32:28.236Z,1.63
2023-05-17T14:35:30.991Z,1.67
2023-05-17T14:38:33.449Z,1.67
2023-05-17T14:41:35.881Z,2.70
2023-05-17T14:44:40.038Z,1.30
2023-05-17T14:47:42.001Z,1.40
2023-05-17T14:50:43.933Z,2.10
2023-05-17T14:53:45.821Z,1.60
2023-05-17T14:56:47.804Z,1.70
2023-05-17T14:59:49.660Z,1.90
2023-05-17T15:02:52.665Z,1.70
2023-05-17T15:05:58.849Z,2.17
2023-05-17T15:09:03.507Z,2.30
2023-05-17T15:12:06.248Z,2.40
2023-05-17T15:15:09.119Z,2.10
2023-05-17T15:18:11.515Z,2.13
2023-05-17T15:21:13.559Z,1.47
2023-05-17T15:24:17.191Z,1.63
2023-05-17T15:27:20.371Z,2.33
2023-05-17T15:30:27.373Z,1.90
2023-05-17T15:33:29.768Z,3.07
2023-05-17T15:36:31.862Z,2.00
2023-05-17T15:39:34.432Z,3.00
2023-05-17T15:42:36.468Z,2.77
2023-05-17T15:45:38.399Z,2.13
2023-05-17T15:48:40.404Z,2.83
2023-05-17T15:51:42.473Z,2.07
2023-05-17T15:54:46.074Z,2.37
2023-05-17T15:57:48.075Z,2.73
2023-05-17T16:00:50.078Z,2.50
2023-05-17T16:03:52.131Z,3.40
2023-05-17T16:06:54.098Z,2.17
2023-05-17T16:09:56.057Z,2.33
2023-05-17T16:12:58.637Z,1.90
2023-05-17T16:16:01.185Z,2.47
2023-05-17T16:19:04.759Z,2.40
2023-05-17T16:22:06.911Z,3.47
2023-05-17T16:25:09.422Z,2.80
2023-05-17T16:28:11.690Z,2.90
2023-05-17T16:31:13.670Z,2.50
2023-05-17T16:34:15.866Z,2.57
2023-05-17T16:37:17.880Z,2.23
2023-05-17T16:40:19.873Z,2.67
2023-05-17T16:43:21.781Z,3.17
2023-05-17T16:46:25.042Z,2.40
2023-05-17T16:49:26.923Z,2.40
2023-05-17T16:52:30.421Z,2.37
2023-05-17T16:55:32.899Z,2.07
2023-05-17T16:58:34.838Z,2.33
2023-05-17T17:01:36.761Z,2.53
2023-05-17T17:04:38.903Z,2.10
2023-05-17T17:07:40.968Z,2.10
2023-05-17T17:10:43.095Z,2.07
2023-05-17T17:13:45.053Z,2.10
2023-05-17T17:16:47.432Z,2.17
2023-05-17T17:19:49.315Z,2.37
2023-05-17T17:22:51.466Z,2.30
2023-05-17T17:25:53.416Z,2.17
2023-05-17T17:28:55.381Z,2.50
2023-05-17T17:31:57.635Z,2.77
2023-05-17T17:34:59.726Z,2.40
2023-05-17T17:38:03.324Z,2.60
2023-05-17T17:41:05.918Z,2.67
2023-05-17T17:44:07.774Z,2.30
2023-05-17T17:47:10.654Z,2.50
2023-05-17T17:50:12.619Z,2.17
2023-05-17T17:53:15.213Z,2.00
2023-05-17T17:56:18.599Z,1.73
2023-05-17T17:59:21.206Z,1.90
2023-05-17T18:02:23.116Z,2.20
2023-05-17T18:05:27.081Z,2.33
2023-05-17T18:08:28.935Z,2.40
2023-05-17T18:11:31.664Z,2.07
2023-05-17T18:14:34.026Z,2.43
2023-05-17T18:17:36.216Z,2.43
2023-05-17T18:20:38.126Z,2.57
2023-05-17T18:23:40.237Z,2.77
2023-05-17T18:26:43.900Z,2.80
2023-05-17T18:29:46.526Z,2.57
2023-05-17T18:32:49.362Z,2.17
2023-05-17T18:35:53.214Z,1.70
2023-05-17T18:38:58.823Z,2.03
2023-05-17T18:42:01.157Z,1.50
2023-05-17T18:45:04.427Z,1.93
2023-05-17T18:48:07.979Z,2.00
2023-05-17T18:51:10.142Z,2.00
2023-05-17T18:54:12.152Z,2.50
2023-05-17T18:57:15.595Z,2.00
2023-05-17T19:00:21.822Z,1.90
2023-05-17T19:03:23.798Z,1.63
2023-05-17T19:06:29.766Z,1.90
2023-05-17T19:09:33.733Z,1.90
2023-05-17T19:12:35.866Z,2.00
2023-05-17T19:15:37.818Z,1.93
2023-05-17T19:18:41.601Z,2.43
2023-05-17T19:21:44.355Z,2.00
2023-05-17T19:24:49.292Z,1.90
2023-05-17T19:27:51.460Z,2.00
2023-05-17T19:30:53.396Z,2.20
2023-05-17T19:33:55.316Z,1.97
2023-05-17T19:36:58.988Z,1.87
2023-05-17T19:40:01.587Z,1.80
2023-05-17T19:43:03.509Z,2.10
2023-05-17T19:46:10.054Z,2.00
2023-05-17T19:49:13.264Z,1.80
2023-05-17T19:52:15.297Z,1.60
2023-05-17T19:55:22.320Z,2.00
2023-05-17T19:58:26.217Z,1.90
2023-05-17T20:01:28.173Z,1.40
2023-05-17T20:04:30.351Z,1.80
2023-05-17T20:07:33.547Z,2.07
2023-05-17T20:10:36.495Z,2.10
2023-05-17T20:13:41.071Z,2.30
2023-05-17T20:16:43.832Z,2.40
2023-05-17T20:19:45.832Z,3.00
2023-05-17T20:22:48.406Z,2.40
2023-05-17T20:25:50.366Z,2.90
2023-05-17T20:28:53.377Z,2.80
2023-05-17T20:31:56.019Z,2.30
2023-05-17T20:34:58.139Z,2.20
2023-05-17T20:38:00.340Z,2.30
2023-05-17T20:41:02.280Z,2.10
2023-05-17T20:44:05.014Z,1.93
2023-05-17T20:47:07.743Z,1.60
2023-05-17T20:50:12.644Z,2.10
2023-05-17T20:53:15.645Z,1.90
2023-05-17T20:56:20.893Z,1.67
2023-05-17T20:59:23.747Z,1.90
2023-05-17T21:02:25.816Z,1.90
2023-05-17T21:05:28.885Z,1.90
2023-05-17T21:08:33.110Z,1.97
2023-05-17T21:11:35.001Z,1.90
2023-05-17T21:14:37.372Z,2.17
2023-05-17T21:17:39.328Z,2.30
2023-05-17T21:20:41.386Z,2.17
2023-05-17T21:23:43.355Z,1.87
2023-05-17T21:26:45.354Z,1.90
2023-05-17T21:29:47.375Z,1.53
2023-05-17T21:32:49.488Z,1.60
2023-05-17T21:35:51.779Z,2.00
2023-05-17T21:38:54.166Z,1.80
2023-05-17T21:41:56.026Z,1.93
2023-05-17T21:44:58.330Z,1.97
2023-05-17T21:48:00.314Z,2.10
2023-05-17T21:51:02.446Z,2.17
2023-05-17T21:54:04.762Z,1.80
2023-05-17T21:57:06.734Z,1.93
2023-05-17T22:00:13.182Z,2.07
2023-05-17T22:03:16.422Z,2.20
2023-05-17T22:06:19.947Z,1.90
2023-05-17T22:09:22.013Z,1.67
2023-05-17T22:12:26.388Z,1.80
2023-05-17T22:15:29.019Z,1.90
2023-05-17T22:18:32.172Z,2.10
2023-05-17T22:21:34.275Z,1.83
2023-05-17T22:24:36.281Z,2.20
2023-05-17T22:27:38.463Z,1.90
2023-05-17T22:30:40.325Z,1.67
2023-05-17T22:33:42.580Z,2.10
2023-05-17T22:36:44.540Z,2.10
2023-05-17T22:39:47.928Z,2.00
2023-05-17T22:42:52.082Z,2.20
2023-05-17T22:45:54.217Z,2.17
2023-05-17T22:48:58.162Z,1.90
2023-05-17T22:52:06.199Z,2.33
2023-05-17T22:55:09.178Z,1.80
2023-05-17T22:58:11.623Z,2.17
2023-05-17T23:01:14.393Z,2.40
2023-05-17T23:04:16.527Z,2.53
2023-05-17T23:07:18.440Z,2.63
2023-05-17T23:10:20.748Z,2.20
2023-05-17T23:13:22.718Z,2.13
2023-05-17T23:16:29.007Z,2.17
2023-05-17T23:19:31.521Z,2.27
2023-05-17T23:22:34.573Z,2.37
2023-05-17T23:25:37.553Z,2.30
2023-05-17T23:28:39.597Z,2.60
2023-05-17T23:31:41.678Z,2.37
2023-05-17T23:34:46.361Z,2.37
2023-05-17T23:37:48.213Z,2.50
2023-05-17T23:40:50.638Z,2.50
2023-05-17T23:43:52.595Z,2.80
2023-05-17T23:46:56.429Z,2.30
2023-05-17T23:49:58.376Z,2.60
2023-05-17T23:53:03.613Z,2.83
2023-05-17T23:56:05.801Z,2.40
2023-05-17T23:59:07.749Z,2.50
